sensor_id;sensor_type;location;lat;lon;timestamp;pressure;altitude;pressure_sealevel;temperature;humidity
9525;BME280;15940;48.734;9.112;2023-02-02T00:01:13;97173.72;;;3.72;78.29
9525;BME280;15940;48.734;9.112;2023-02-02T00:03:41;97173.28;;;3.74;78.24
9525;BME280;15940;48.734;9.112;2023-02-02T00:06:08;97169.44;;;3.75;78.71
9525;BME280;15940;48.734;9.112;2023-02-02T00:08:35;97165.69;;;3.72;78.61
9525;BME280;15940;48.734;9.112;2023-02-02T00:11:03;97162.13;;;3.76;78.71
9525;BME280;15940;48.734;9.112;2023-02-02T00:13:30;97166.44;;;3.73;78.53
9525;BME280;15940;48.734;9.112;2023-02-02T00:15:57;97160.41;;;3.69;78.88
9525;BME280;15940;48.734;9.112;2023-02-02T00:18:24;97157.72;;;3.69;79.13
9525;BME280;15940;48.734;9.112;2023-02-02T00:20:53;97161.16;;;3.69;78.57
9525;BME280;15940;48.734;9.112;2023-02-02T00:23:19;97162.31;;;3.68;79.10
9525;BME280;15940;48.734;9.112;2023-02-02T00:25:49;97169.53;;;3.71;79.10
9525;BME280;15940;48.734;9.112;2023-02-02T00:28:16;97171.69;;;3.77;78.61
9525;BME280;15940;48.734;9.112;2023-02-02T00:30:43;97173.94;;;3.78;78.87
9525;BME280;15940;48.734;9.112;2023-02-02T00:33:11;97183.06;;;3.81;78.37
9525;BME280;15940;48.734;9.112;2023-02-02T00:35:40;97179.19;;;3.82;78.50
9525;BME280;15940;48.734;9.112;2023-02-02T00:38:09;97170.63;;;3.87;78.18
9525;BME280;15940;48.734;9.112;2023-02-02T00:40:36;97184.38;;;3.89;78.14
9525;BME280;15940;48.734;9.112;2023-02-02T00:43:03;97185.13;;;3.89;77.90
9525;BME280;15940;48.734;9.112;2023-02-02T00:45:30;97175.16;;;3.90;78.35
9525;BME280;15940;48.734;9.112;2023-02-02T00:47:56;97177.72;;;3.93;78.07
9525;BME280;15940;48.734;9.112;2023-02-02T00:50:22;97182.31;;;3.93;78.60
9525;BME280;15940;48.734;9.112;2023-02-02T00:52:50;97161.94;;;3.95;78.15
9525;BME280;15940;48.734;9.112;2023-02-02T00:55:20;97159.19;;;3.99;77.99
9525;BME280;15940;48.734;9.112;2023-02-02T00:57:47;97172.47;;;4.03;77.54
9525;BME280;15940;48.734;9.112;2023-02-02T01:00:17;97164.00;;;4.04;78.01
9525;BME280;15940;48.734;9.112;2023-02-02T01:02:45;97157.88;;;4.04;77.48
9525;BME280;15940;48.734;9.112;2023-02-02T01:05:13;97166.25;;;4.06;78.03
9525;BME280;15940;48.734;9.112;2023-02-02T01:07:40;97157.38;;;4.09;77.10
9525;BME280;15940;48.734;9.112;2023-02-02T01:10:11;97157.47;;;4.05;77.06
9525;BME280;15940;48.734;9.112;2023-02-02T01:12:40;97160.88;;;4.06;77.45
9525;BME280;15940;48.734;9.112;2023-02-02T01:15:09;97160.38;;;4.11;77.25
9525;BME280;15940;48.734;9.112;2023-02-02T01:17:36;97165.72;;;4.11;77.39
9525;BME280;15940;48.734;9.112;2023-02-02T01:20:06;97174.63;;;4.08;77.69
9525;BME280;15940;48.734;9.112;2023-02-02T01:22:33;97183.00;;;4.10;78.75
9525;BME280;15940;48.734;9.112;2023-02-02T01:25:00;97181.16;;;4.07;79.33
9525;BME280;15940;48.734;9.112;2023-02-02T01:27:27;97174.19;;;3.96;79.65
9525;BME280;15940;48.734;9.112;2023-02-02T01:29:56;97176.97;;;3.93;80.29
9525;BME280;15940;48.734;9.112;2023-02-02T01:32:22;97185.94;;;3.86;81.31
9525;BME280;15940;48.734;9.112;2023-02-02T01:34:49;97175.97;;;3.87;81.47
9525;BME280;15940;48.734;9.112;2023-02-02T01:37:16;97182.63;;;3.82;81.90
9525;BME280;15940;48.734;9.112;2023-02-02T01:39:43;97185.75;;;3.81;82.61
9525;BME280;15940;48.734;9.112;2023-02-02T01:42:13;97178.22;;;3.76;82.74
9525;BME280;15940;48.734;9.112;2023-02-02T01:45:17;97192.16;;;3.70;83.55
9525;BME280;15940;48.734;9.112;2023-02-02T01:47:48;97192.91;;;3.71;83.22
9525;BME280;15940;48.734;9.112;2023-02-02T01:50:18;97188.47;;;3.64;83.90
9525;BME280;15940;48.734;9.112;2023-02-02T01:52:49;97186.66;;;3.61;83.62
9525;BME280;15940;48.734;9.112;2023-02-02T01:55:21;97179.78;;;3.60;83.54
9525;BME280;15940;48.734;9.112;2023-02-02T01:57:54;97185.91;;;3.61;83.52
9525;BME280;15940;48.734;9.112;2023-02-02T02:00:24;97174.75;;;3.62;83.07
9525;BME280;15940;48.734;9.112;2023-02-02T02:02:57;97174.75;;;3.62;83.94
9525;BME280;15940;48.734;9.112;2023-02-02T02:05:34;97168.97;;;3.64;83.32
9525;BME280;15940;48.734;9.112;2023-02-02T02:08:09;97171.22;;;3.65;83.11
9525;BME280;15940;48.734;9.112;2023-02-02T02:10:37;97171.78;;;3.73;82.67
9525;BME280;15940;48.734;9.112;2023-02-02T02:13:05;97175.97;;;3.74;82.16
9525;BME280;15940;48.734;9.112;2023-02-02T02:18:47;97170.09;;;3.79;81.95
9525;BME280;15940;48.734;9.112;2023-02-02T02:21:40;97175.66;;;3.85;82.05
9525;BME280;15940;48.734;9.112;2023-02-02T02:25:09;97181.44;;;3.83;81.81
9525;BME280;15940;48.734;9.112;2023-02-02T02:28:27;97172.34;;;3.81;81.88
9525;BME280;15940;48.734;9.112;2023-02-02T02:31:54;97169.88;;;3.86;82.32
9525;BME280;15940;48.734;9.112;2023-02-02T02:34:45;97172.00;;;3.79;82.37
9525;BME280;15940;48.734;9.112;2023-02-02T02:37:23;97171.16;;;3.82;82.46
9525;BME280;15940;48.734;9.112;2023-02-02T02:40:00;97172.56;;;3.86;81.98
9525;BME280;15940;48.734;9.112;2023-02-02T02:42:33;97174.47;;;3.86;82.14
9525;BME280;15940;48.734;9.112;2023-02-02T02:45:02;97171.81;;;3.86;82.24
9525;BME280;15940;48.734;9.112;2023-02-02T02:47:32;97172.88;;;3.88;81.56
9525;BME280;15940;48.734;9.112;2023-02-02T02:50:00;97170.19;;;3.88;82.11
9525;BME280;15940;48.734;9.112;2023-02-02T02:52:27;97165.59;;;3.89;81.75
9525;BME280;15940;48.734;9.112;2023-02-02T02:54:55;97162.25;;;3.85;81.61
9525;BME280;15940;48.734;9.112;2023-02-02T02:57:40;97167.75;;;3.94;81.37
9525;BME280;15940;48.734;9.112;2023-02-02T03:00:29;97163.78;;;3.98;81.41
9525;BME280;15940;48.734;9.112;2023-02-02T03:03:06;97165.28;;;3.99;81.35
9525;BME280;15940;48.734;9.112;2023-02-02T03:05:45;97151.66;;;3.94;81.24
9525;BME280;15940;48.734;9.112;2023-02-02T03:08:23;97153.59;;;3.93;81.30
9525;BME280;15940;48.734;9.112;2023-02-02T03:10:52;97163.13;;;3.94;81.32
9525;BME280;15940;48.734;9.112;2023-02-02T03:13:21;97163.88;;;3.95;81.20
9525;BME280;15940;48.734;9.112;2023-02-02T03:15:48;97168.94;;;3.93;80.98
9525;BME280;15940;48.734;9.112;2023-02-02T03:18:18;97164.88;;;4.01;80.46
9525;BME280;15940;48.734;9.112;2023-02-02T03:20:47;97157.34;;;3.96;81.07
9525;BME280;15940;48.734;9.112;2023-02-02T03:23:14;97162.06;;;3.92;81.20
9525;BME280;15940;48.734;9.112;2023-02-02T03:25:41;97160.56;;;3.91;81.30
9525;BME280;15940;48.734;9.112;2023-02-02T03:28:09;97168.59;;;3.91;80.84
9525;BME280;15940;48.734;9.112;2023-02-02T03:30:36;97167.44;;;3.92;81.23
9525;BME280;15940;48.734;9.112;2023-02-02T03:33:04;97167.44;;;3.92;81.10
9525;BME280;15940;48.734;9.112;2023-02-02T03:35:33;97174.28;;;3.93;81.23
9525;BME280;15940;48.734;9.112;2023-02-02T03:38:00;97165.81;;;3.94;81.34
9525;BME280;15940;48.734;9.112;2023-02-02T03:40:27;97166.47;;;3.98;81.44
9525;BME280;15940;48.734;9.112;2023-02-02T03:42:54;97163.06;;;3.98;81.58
9525;BME280;15940;48.734;9.112;2023-02-02T03:45:21;97162.69;;;3.96;81.42
9525;BME280;15940;48.734;9.112;2023-02-02T03:47:48;97158.75;;;4.00;81.35
9525;BME280;15940;48.734;9.112;2023-02-02T03:50:16;97161.53;;;3.97;81.57
9525;BME280;15940;48.734;9.112;2023-02-02T03:52:44;97156.91;;;3.97;81.81
9525;BME280;15940;48.734;9.112;2023-02-02T03:55:11;97163.44;;;3.96;81.83
9525;BME280;15940;48.734;9.112;2023-02-02T03:57:38;97151.78;;;3.90;81.77
9525;BME280;15940;48.734;9.112;2023-02-02T04:00:07;97165.50;;;3.92;82.28
9525;BME280;15940;48.734;9.112;2023-02-02T04:02:34;97163.25;;;3.91;82.26
9525;BME280;15940;48.734;9.112;2023-02-02T04:05:01;97165.81;;;3.94;82.02
9525;BME280;15940;48.734;9.112;2023-02-02T04:07:28;97173.09;;;3.94;81.95
9525;BME280;15940;48.734;9.112;2023-02-02T04:09:56;97182.97;;;3.97;81.92
9525;BME280;15940;48.734;9.112;2023-02-02T04:12:23;97184.16;;;3.96;81.92
9525;BME280;15940;48.734;9.112;2023-02-02T04:14:50;97188.00;;;3.95;81.81
9525;BME280;15940;48.734;9.112;2023-02-02T04:17:17;97183.81;;;3.94;81.52
9525;BME280;15940;48.734;9.112;2023-02-02T04:19:45;97194.78;;;3.99;81.72
9525;BME280;15940;48.734;9.112;2023-02-02T04:22:12;97185.75;;;4.06;81.54
9525;BME280;15940;48.734;9.112;2023-02-02T04:24:39;97194.66;;;4.03;81.49
9525;BME280;15940;48.734;9.112;2023-02-02T04:27:07;97202.19;;;4.08;81.35
9525;BME280;15940;48.734;9.112;2023-02-02T04:29:34;97199.09;;;4.10;81.21
9525;BME280;15940;48.734;9.112;2023-02-02T04:32:04;97192.22;;;4.09;81.67
9525;BME280;15940;48.734;9.112;2023-02-02T04:34:30;97210.13;;;4.12;81.54
9525;BME280;15940;48.734;9.112;2023-02-02T04:36:57;97204.44;;;4.10;81.37
9525;BME280;15940;48.734;9.112;2023-02-02T04:39:25;97208.94;;;4.13;81.07
9525;BME280;15940;48.734;9.112;2023-02-02T04:41:52;97210.44;;;4.14;81.00
9525;BME280;15940;48.734;9.112;2023-02-02T04:44:23;97207.13;;;4.10;81.43
9525;BME280;15940;48.734;9.112;2023-02-02T04:46:50;97210.56;;;4.10;81.26
9525;BME280;15940;48.734;9.112;2023-02-02T04:49:18;97209.38;;;4.11;81.29
9525;BME280;15940;48.734;9.112;2023-02-02T04:51:47;97214.41;;;4.09;81.57
9525;BME280;15940;48.734;9.112;2023-02-02T04:54:16;97208.63;;;4.11;81.50
9525;BME280;15940;48.734;9.112;2023-02-02T04:56:44;97208.63;;;4.11;81.34
9525;BME280;15940;48.734;9.112;2023-02-02T04:59:13;97216.34;;;4.09;81.56
9525;BME280;15940;48.734;9.112;2023-02-02T05:01:41;97214.41;;;4.09;81.76
9525;BME280;15940;48.734;9.112;2023-02-02T05:04:10;97224.03;;;4.07;81.95
9525;BME280;15940;48.734;9.112;2023-02-02T05:06:37;97221.59;;;4.12;81.38
9525;BME280;15940;48.734;9.112;2023-02-02T05:09:04;97222.78;;;4.11;81.68
9525;BME280;15940;48.734;9.112;2023-02-02T05:11:36;97222.47;;;4.09;81.63
9525;BME280;15940;48.734;9.112;2023-02-02T05:14:05;97214.50;;;4.06;81.85
9525;BME280;15940;48.734;9.112;2023-02-02T05:16:32;97224.38;;;4.09;81.79
9525;BME280;15940;48.734;9.112;2023-02-02T05:19:04;97233.63;;;4.08;82.09
9525;BME280;15940;48.734;9.112;2023-02-02T05:21:31;97232.44;;;4.09;82.02
9525;BME280;15940;48.734;9.112;2023-02-02T05:23:58;97235.50;;;4.07;81.80
9525;BME280;15940;48.734;9.112;2023-02-02T05:26:26;97237.78;;;4.09;81.71
9525;BME280;15940;48.734;9.112;2023-02-02T05:28:55;97247.41;;;4.06;82.11
9525;BME280;15940;48.734;9.112;2023-02-02T05:31:22;97252.78;;;4.06;82.20
9525;BME280;15940;48.734;9.112;2023-02-02T05:33:49;97249.25;;;4.09;82.11
9525;BME280;15940;48.734;9.112;2023-02-02T05:36:17;97255.28;;;4.13;82.19
9525;BME280;15940;48.734;9.112;2023-02-02T05:38:44;97257.53;;;4.15;82.50
9525;BME280;15940;48.734;9.112;2023-02-02T05:41:11;97253.03;;;4.12;82.77
9525;BME280;15940;48.734;9.112;2023-02-02T05:43:38;97263.09;;;4.08;82.89
9525;BME280;15940;48.734;9.112;2023-02-02T05:46:05;97248.50;;;4.09;83.18
9525;BME280;15940;48.734;9.112;2023-02-02T05:48:32;97259.25;;;4.09;83.29
9525;BME280;15940;48.734;9.112;2023-02-02T05:51:03;97263.09;;;4.08;83.65
9525;BME280;15940;48.734;9.112;2023-02-02T05:53:35;97266.63;;;4.05;83.64
9525;BME280;15940;48.734;9.112;2023-02-02T05:56:03;97260.94;;;4.03;83.54
9525;BME280;15940;48.734;9.112;2023-02-02T05:58:37;97255.56;;;4.03;83.84
9525;BME280;15940;48.734;9.112;2023-02-02T06:01:04;97260.00;;;4.09;83.28
9525;BME280;15940;48.734;9.112;2023-02-02T06:03:31;97261.50;;;4.10;83.49
9525;BME280;15940;48.734;9.112;2023-02-02T06:05:58;97271.16;;;4.08;83.64
9525;BME280;15940;48.734;9.112;2023-02-02T06:08:40;97256.63;;;4.05;83.81
9525;BME280;15940;48.734;9.112;2023-02-02T06:11:09;97248.91;;;4.07;83.86
9525;BME280;15940;48.734;9.112;2023-02-02T06:13:36;97249.69;;;4.08;83.89
9525;BME280;15940;48.734;9.112;2023-02-02T06:16:04;97252.25;;;3.98;84.34
9525;BME280;15940;48.734;9.112;2023-02-02T06:18:35;97251.28;;;4.05;84.06
9525;BME280;15940;48.734;9.112;2023-02-02T06:21:05;97260.50;;;4.04;84.30
9525;BME280;15940;48.734;9.112;2023-02-02T06:23:33;97256.22;;;4.07;83.87
9525;BME280;15940;48.734;9.112;2023-02-02T06:26:02;97256.13;;;4.10;84.11
9525;BME280;15940;48.734;9.112;2023-02-02T06:28:30;97268.47;;;4.08;83.79
9525;BME280;15940;48.734;9.112;2023-02-02T06:31:03;97269.28;;;4.05;84.13
9525;BME280;15940;48.734;9.112;2023-02-02T06:33:30;97271.22;;;4.04;84.04
9525;BME280;15940;48.734;9.112;2023-02-02T06:35:58;97280.00;;;4.05;84.26
9525;BME280;15940;48.734;9.112;2023-02-02T06:38:27;97272.72;;;4.05;84.00
9525;BME280;15940;48.734;9.112;2023-02-02T06:40:58;97270.78;;;4.06;84.10
9525;BME280;15940;48.734;9.112;2023-02-02T06:43:30;97272.41;;;4.03;84.07
9525;BME280;15940;48.734;9.112;2023-02-02T06:45:58;97272.41;;;4.03;84.03
9525;BME280;15940;48.734;9.112;2023-02-02T06:48:26;97272.09;;;4.01;84.09
9525;BME280;15940;48.734;9.112;2023-02-02T06:50:56;97279.38;;;4.00;84.19
9525;BME280;15940;48.734;9.112;2023-02-02T06:53:26;97285.06;;;4.03;84.64
9525;BME280;15940;48.734;9.112;2023-02-02T06:55:59;97281.63;;;4.02;84.09
9525;BME280;15940;48.734;9.112;2023-02-02T06:58:30;97281.63;;;4.02;84.26
9525;BME280;15940;48.734;9.112;2023-02-02T07:01:01;97288.06;;;4.05;84.06
9525;BME280;15940;48.734;9.112;2023-02-02T07:03:33;97284.88;;;4.10;83.83
9525;BME280;15940;48.734;9.112;2023-02-02T07:06:11;97292.91;;;4.10;83.39
9525;BME280;15940;48.734;9.112;2023-02-02T07:08:39;97282.81;;;4.14;83.66
9525;BME280;15940;48.734;9.112;2023-02-02T07:11:06;97282.19;;;4.10;83.55
9525;BME280;15940;48.734;9.112;2023-02-02T07:13:34;97283.38;;;4.09;83.78
9525;BME280;15940;48.734;9.112;2023-02-02T07:16:02;97295.28;;;4.08;83.89
9525;BME280;15940;48.734;9.112;2023-02-02T07:18:31;97281.88;;;4.08;84.04
9525;BME280;15940;48.734;9.112;2023-02-02T07:20:59;97279.19;;;4.08;83.74
9525;BME280;15940;48.734;9.112;2023-02-02T07:23:32;97291.06;;;4.07;83.41
9525;BME280;15940;48.734;9.112;2023-02-02T07:26:01;97291.41;;;4.09;83.33
9525;BME280;15940;48.734;9.112;2023-02-02T07:28:32;97293.66;;;4.10;83.61
9525;BME280;15940;48.734;9.112;2023-02-02T07:31:15;97295.38;;;4.17;83.47
9525;BME280;15940;48.734;9.112;2023-02-02T07:33:43;97299.66;;;4.14;83.82
9525;BME280;15940;48.734;9.112;2023-02-02T07:36:13;97301.09;;;4.19;83.96
9525;BME280;15940;48.734;9.112;2023-02-02T07:38:41;97304.53;;;4.19;83.98
9525;BME280;15940;48.734;9.112;2023-02-02T07:41:11;97303.34;;;4.20;84.28
9525;BME280;15940;48.734;9.112;2023-02-02T07:43:41;97310.63;;;4.20;84.04
9525;BME280;15940;48.734;9.112;2023-02-02T07:46:10;97309.44;;;4.21;84.30
9525;BME280;15940;48.734;9.112;2023-02-02T07:48:40;97311.69;;;4.22;84.04
9525;BME280;15940;48.734;9.112;2023-02-02T07:51:11;97313.31;;;4.20;84.23
9525;BME280;15940;48.734;9.112;2023-02-02T07:53:43;97314.72;;;4.24;83.83
9525;BME280;15940;48.734;9.112;2023-02-02T07:56:13;97316.13;;;4.29;84.12
9525;BME280;15940;48.734;9.112;2023-02-02T07:58:42;97316.34;;;4.35;83.78
9525;BME280;15940;48.734;9.112;2023-02-02T08:01:14;97314.00;;;4.37;83.78
9525;BME280;15940;48.734;9.112;2023-02-02T08:03:43;97298.56;;;4.41;83.76
9525;BME280;15940;48.734;9.112;2023-02-02T08:06:18;97293.75;;;4.48;83.24
9525;BME280;15940;48.734;9.112;2023-02-02T08:12:26;97280.25;;;4.65;82.03
9525;BME280;15940;48.734;9.112;2023-02-02T08:14:53;97289.25;;;4.71;81.89
9525;BME280;15940;48.734;9.112;2023-02-02T08:17:24;97282.59;;;4.75;81.72
9525;BME280;15940;48.734;9.112;2023-02-02T08:19:53;97285.28;;;4.75;81.46
9525;BME280;15940;48.734;9.112;2023-02-02T08:22:20;97287.84;;;4.79;81.36
9525;BME280;15940;48.734;9.112;2023-02-02T08:24:47;97296.34;;;4.77;80.81
9525;BME280;15940;48.734;9.112;2023-02-02T08:27:15;97313.75;;;4.85;80.19
9525;BME280;15940;48.734;9.112;2023-02-02T08:29:46;97315.44;;;4.92;80.34
9525;BME280;15940;48.734;9.112;2023-02-02T08:32:14;97322.97;;;4.97;80.59
9525;BME280;15940;48.734;9.112;2023-02-02T08:34:42;97329.97;;;4.95;80.23
9525;BME280;15940;48.734;9.112;2023-02-02T08:37:11;97339.19;;;4.94;80.55
9525;BME280;15940;48.734;9.112;2023-02-02T08:39:39;97342.63;;;4.94;79.87
9525;BME280;15940;48.734;9.112;2023-02-02T08:42:09;97353.25;;;4.98;79.92
9525;BME280;15940;48.734;9.112;2023-02-02T08:44:39;97348.41;;;4.93;79.89
9525;BME280;15940;48.734;9.112;2023-02-02T08:47:06;97349.59;;;4.92;80.18
9525;BME280;15940;48.734;9.112;2023-02-02T08:49:33;97349.50;;;4.95;80.52
9525;BME280;15940;48.734;9.112;2023-02-02T08:52:02;97350.44;;;5.01;80.53
9525;BME280;15940;48.734;9.112;2023-02-02T08:54:30;97366.78;;;5.07;79.86
9525;BME280;15940;48.734;9.112;2023-02-02T09:00:40;97376.03;;;5.06;79.68
9525;BME280;15940;48.734;9.112;2023-02-02T09:03:08;97381.16;;;5.00;79.59
9525;BME280;15940;48.734;9.112;2023-02-02T09:05:35;97380.41;;;5.00;79.57
9525;BME280;15940;48.734;9.112;2023-02-02T09:08:06;97386.00;;;5.05;79.28
9525;BME280;15940;48.734;9.112;2023-02-02T09:10:37;97393.63;;;5.07;79.09
9525;BME280;15940;48.734;9.112;2023-02-02T09:13:14;97379.47;;;5.06;79.20
9525;BME280;15940;48.734;9.112;2023-02-02T09:15:41;97393.63;;;5.07;79.25
9525;BME280;15940;48.734;9.112;2023-02-02T09:18:09;97397.94;;;5.04;79.19
9525;BME280;15940;48.734;9.112;2023-02-02T09:20:36;97385.69;;;5.03;79.45
9525;BME280;15940;48.734;9.112;2023-02-02T09:23:04;97379.91;;;5.05;79.33
9525;BME280;15940;48.734;9.112;2023-02-02T09:25:39;97377.84;;;5.09;79.56
9525;BME280;15940;48.734;9.112;2023-02-02T09:28:06;97387.41;;;5.10;79.38
9525;BME280;15940;48.734;9.112;2023-02-02T09:30:33;97401.06;;;5.15;79.82
9525;BME280;15940;48.734;9.112;2023-02-02T09:33:00;97396.75;;;5.18;79.50
9525;BME280;15940;48.734;9.112;2023-02-02T09:35:27;97397.50;;;5.19;79.75
9525;BME280;15940;48.734;9.112;2023-02-02T09:37:54;97400.31;;;5.15;79.62
9525;BME280;15940;48.734;9.112;2023-02-02T09:40:22;97407.94;;;5.16;80.03
9525;BME280;15940;48.734;9.112;2023-02-02T09:43:20;97402.03;;;5.22;79.72
9525;BME280;15940;48.734;9.112;2023-02-02T09:45:59;97407.72;;;5.24;79.25
9525;BME280;15940;48.734;9.112;2023-02-02T09:48:37;97416.84;;;5.26;79.27
9525;BME280;15940;48.734;9.112;2023-02-02T09:51:11;97408.03;;;5.26;79.92
9525;BME280;15940;48.734;9.112;2023-02-02T09:53:44;97410.50;;;5.20;79.85
9525;BME280;15940;48.734;9.112;2023-02-02T09:56:22;97414.59;;;5.12;80.42
9525;BME280;15940;48.734;9.112;2023-02-02T09:59:17;97399.34;;;5.22;80.57
9525;BME280;15940;48.734;9.112;2023-02-02T10:01:48;97410.09;;;5.22;80.26
9525;BME280;15940;48.734;9.112;2023-02-02T10:04:32;97419.19;;;5.11;80.45
9525;BME280;15940;48.734;9.112;2023-02-02T10:07:16;97421.25;;;5.07;80.90
9525;BME280;15940;48.734;9.112;2023-02-02T10:09:49;97422.09;;;5.04;80.86
9525;BME280;15940;48.734;9.112;2023-02-02T10:12:33;97422.00;;;5.08;80.74
9525;BME280;15940;48.734;9.112;2023-02-02T10:15:18;97416.84;;;5.13;80.77
9525;BME280;15940;48.734;9.112;2023-02-02T10:20:54;97420.28;;;5.27;79.99
9525;BME280;15940;48.734;9.112;2023-02-02T10:23:25;97406.22;;;5.35;79.88
9525;BME280;15940;48.734;9.112;2023-02-02T10:25:56;97414.91;;;5.39;79.15
9525;BME280;15940;48.734;9.112;2023-02-02T10:28:50;97412.44;;;5.45;79.06
9525;BME280;15940;48.734;9.112;2023-02-02T10:31:48;97417.69;;;5.49;79.00
9525;BME280;15940;48.734;9.112;2023-02-02T10:34:24;97423.72;;;5.40;78.89
9525;BME280;15940;48.734;9.112;2023-02-02T10:37:09;97419.31;;;5.33;79.70
9525;BME280;15940;48.734;9.112;2023-02-02T10:39:56;97417.06;;;5.44;79.17
9525;BME280;15940;48.734;9.112;2023-02-02T10:42:38;97432.22;;;5.51;79.04
9525;BME280;15940;48.734;9.112;2023-02-02T10:45:16;97433.41;;;5.50;79.18
9525;BME280;15940;48.734;9.112;2023-02-02T10:47:45;97438.03;;;5.50;79.24
9525;BME280;15940;48.734;9.112;2023-02-02T10:50:18;97447.50;;;5.41;79.63
9525;BME280;15940;48.734;9.112;2023-02-02T10:52:49;97452.63;;;5.36;79.52
9525;BME280;15940;48.734;9.112;2023-02-02T10:55:27;97441.34;;;5.28;79.75
9525;BME280;15940;48.734;9.112;2023-02-02T10:58:07;97437.78;;;5.19;80.19
9525;BME280;15940;48.734;9.112;2023-02-02T11:00:46;97438.53;;;5.19;80.67
9525;BME280;15940;48.734;9.112;2023-02-02T11:03:21;97435.66;;;5.13;81.34
9525;BME280;15940;48.734;9.112;2023-02-02T11:05:50;97438.09;;;5.08;80.94
9525;BME280;15940;48.734;9.112;2023-02-02T11:08:37;97431.97;;;5.07;81.03
9525;BME280;15940;48.734;9.112;2023-02-02T11:11:17;97431.88;;;5.11;80.64
9525;BME280;15940;48.734;9.112;2023-02-02T11:13:48;97430.47;;;5.19;80.84
9525;BME280;15940;48.734;9.112;2023-02-02T11:16:25;97433.72;;;5.27;80.70
9525;BME280;15940;48.734;9.112;2023-02-02T11:18:55;97435.66;;;5.26;80.31
9525;BME280;15940;48.734;9.112;2023-02-02T11:21:25;97430.91;;;5.30;80.42
9525;BME280;15940;48.734;9.112;2023-02-02T11:23:58;97419.22;;;5.37;80.59
9525;BME280;15940;48.734;9.112;2023-02-02T11:26:44;97422.13;;;5.42;80.74
9525;BME280;15940;48.734;9.112;2023-02-02T11:29:18;97423.41;;;5.38;81.04
9525;BME280;15940;48.734;9.112;2023-02-02T11:32:25;97429.88;;;5.40;82.50
9525;BME280;15940;48.734;9.112;2023-02-02T11:35:25;97435.56;;;5.42;82.77
9525;BME280;15940;48.734;9.112;2023-02-02T11:38:08;97430.38;;;5.48;83.18
9525;BME280;15940;48.734;9.112;2023-02-02T11:40:41;97415.97;;;5.55;82.61
9525;BME280;15940;48.734;9.112;2023-02-02T11:43:25;97423.81;;;5.49;82.68
9525;BME280;15940;48.734;9.112;2023-02-02T11:46:03;97422.44;;;5.44;81.98
9525;BME280;15940;48.734;9.112;2023-02-02T11:49:24;97427.81;;;5.32;82.20
9525;BME280;15940;48.734;9.112;2023-02-02T11:52:05;97409.78;;;5.32;81.74
9525;BME280;15940;48.734;9.112;2023-02-02T11:58:28;97418.34;;;5.27;82.36
9525;BME280;15940;48.734;9.112;2023-02-02T12:01:00;97410.28;;;5.27;82.46
9525;BME280;15940;48.734;9.112;2023-02-02T12:03:37;97419.09;;;5.28;82.82
9525;BME280;15940;48.734;9.112;2023-02-02T12:06:20;97421.78;;;5.28;82.74
9525;BME280;15940;48.734;9.112;2023-02-02T12:08:58;97422.78;;;5.21;83.13
9525;BME280;15940;48.734;9.112;2023-02-02T12:11:47;97418.91;;;5.22;83.29
9525;BME280;15940;48.734;9.112;2023-02-02T12:14:38;97420.41;;;5.23;83.47
9525;BME280;15940;48.734;9.112;2023-02-02T12:17:29;97409.75;;;5.20;83.38
9525;BME280;15940;48.734;9.112;2023-02-02T12:20:36;97413.63;;;5.19;83.79
9525;BME280;15940;48.734;9.112;2023-02-02T12:23:53;97422.97;;;5.14;83.18
9525;BME280;15940;48.734;9.112;2023-02-02T12:26:28;97416.63;;;5.08;83.82
9525;BME280;15940;48.734;9.112;2023-02-02T12:29:15;97416.50;;;5.11;83.76
9525;BME280;15940;48.734;9.112;2023-02-02T12:32:20;97424.16;;;5.13;84.43
9525;BME280;15940;48.734;9.112;2023-02-02T12:35:25;97419.63;;;5.10;83.42
9525;BME280;15940;48.734;9.112;2023-02-02T12:38:05;97426.59;;;5.07;84.73
9525;BME280;15940;48.734;9.112;2023-02-02T12:41:00;97407.47;;;4.93;85.37
9525;BME280;15940;48.734;9.112;2023-02-02T12:43:47;97416.69;;;4.92;85.25
9525;BME280;15940;48.734;9.112;2023-02-02T12:46:27;97413.69;;;4.90;84.66
9525;BME280;15940;48.734;9.112;2023-02-02T12:49:18;97405.56;;;4.93;85.73
9525;BME280;15940;48.734;9.112;2023-02-02T12:52:19;97416.28;;;4.93;86.03
9525;BME280;15940;48.734;9.112;2023-02-02T12:55:09;97423.03;;;4.85;86.66
9525;BME280;15940;48.734;9.112;2023-02-02T12:58:04;97418.50;;;4.82;86.28
9525;BME280;15940;48.734;9.112;2023-02-02T13:01:14;97423.88;;;4.82;86.72
9525;BME280;15940;48.734;9.112;2023-02-02T13:04:28;97429.34;;;4.78;86.22
9525;BME280;15940;48.734;9.112;2023-02-02T13:07:27;97429.78;;;4.77;87.23
9525;BME280;15940;48.734;9.112;2023-02-02T13:10:13;97424.09;;;4.75;86.72
9525;BME280;15940;48.734;9.112;2023-02-02T13:12:49;97423.53;;;4.67;86.79
9525;BME280;15940;48.734;9.112;2023-02-02T13:15:27;97431.25;;;4.65;87.35
9525;BME280;15940;48.734;9.112;2023-02-02T13:18:00;97429.31;;;4.66;86.63
9525;BME280;15940;48.734;9.112;2023-02-02T13:21:12;97411.81;;;4.61;86.09
9525;BME280;15940;48.734;9.112;2023-02-02T13:23:45;97426.81;;;4.58;86.17
9525;BME280;15940;48.734;9.112;2023-02-02T13:26:20;97427.59;;;4.59;87.25
9525;BME280;15940;48.734;9.112;2023-02-02T13:28:56;97413.16;;;4.53;87.36
9525;BME280;15940;48.734;9.112;2023-02-02T13:31:40;97424.91;;;4.59;87.15
9525;BME280;15940;48.734;9.112;2023-02-02T13:34:18;97433.59;;;4.63;87.30
9525;BME280;15940;48.734;9.112;2023-02-02T13:36:51;97442.97;;;4.71;87.05
9525;BME280;15940;48.734;9.112;2023-02-02T13:39:27;97429.47;;;4.87;86.57
9525;BME280;15940;48.734;9.112;2023-02-02T13:41:58;97418.00;;;4.87;86.41
9525;BME280;15940;48.734;9.112;2023-02-02T13:44:33;97425.63;;;4.88;85.94
9525;BME280;15940;48.734;9.112;2023-02-02T13:47:08;97427.03;;;4.93;85.21
9525;BME280;15940;48.734;9.112;2023-02-02T13:49:43;97438.41;;;4.97;85.54
9525;BME280;15940;48.734;9.112;2023-02-02T13:53:04;97448.28;;;5.00;85.71
9525;BME280;15940;48.734;9.112;2023-02-02T13:55:55;97455.16;;;5.01;85.69
9525;BME280;15940;48.734;9.112;2023-02-02T13:58:59;97456.16;;;5.07;84.99
9525;BME280;15940;48.734;9.112;2023-02-02T14:01:33;97470.88;;;5.03;84.76
9525;BME280;15940;48.734;9.112;2023-02-02T14:04:18;97467.94;;;4.97;84.69
9525;BME280;15940;48.734;9.112;2023-02-02T14:06:55;97460.75;;;4.94;84.98
9525;BME280;15940;48.734;9.112;2023-02-02T14:09:27;97464.06;;;4.98;84.46
9525;BME280;15940;48.734;9.112;2023-02-02T14:12:01;97461.72;;;5.00;85.19
9525;BME280;15940;48.734;9.112;2023-02-02T14:14:32;97461.72;;;5.00;84.67
9525;BME280;15940;48.734;9.112;2023-02-02T14:20:43;97469.69;;;5.04;84.19